createdAt,value
2018-08-16T00:00:08.904Z,17.37
2018-08-16T00:02:36.861Z,17.60
2018-08-16T00:05:04.856Z,17.27
2018-08-16T00:07:32.808Z,18.07
2018-08-16T00:10:00.804Z,17.53
2018-08-16T00:12:28.908Z,17.43
2018-08-16T00:14:56.872Z,18.30
2018-08-16T00:17:24.824Z,18.63
2018-08-16T00:19:52.855Z,18.13
2018-08-16T00:22:20.813Z,19.03
2018-08-16T00:24:48.789Z,19.13
2018-08-16T00:27:16.769Z,18.27
2018-08-16T00:29:44.732Z,19.67
2018-08-16T00:32:12.737Z,18.90
2018-08-16T00:34:40.700Z,18.43
2018-08-16T00:37:08.656Z,18.50
2018-08-16T00:39:36.609Z,19.47
2018-08-16T00:42:04.704Z,18.30
2018-08-16T00:44:32.645Z,18.17
2018-08-16T00:47:00.641Z,18.00
2018-08-16T00:49:28.624Z,17.87
2018-08-16T00:51:56.619Z,17.33
2018-08-16T00:54:24.585Z,17.53
2018-08-16T00:56:52.561Z,17.67
2018-08-16T00:59:20.525Z,17.63
2018-08-16T01:01:48.545Z,19.17
2018-08-16T01:04:16.526Z,18.70
2018-08-16T01:06:44.506Z,16.93
2018-08-16T01:09:12.494Z,17.40
2018-08-16T01:11:40.550Z,18.30
2018-08-16T01:14:09.229Z,17.13
2018-08-16T01:16:37.181Z,18.53
2018-08-16T01:19:05.154Z,17.90
2018-08-16T01:21:33.116Z,18.40
2018-08-16T01:24:01.338Z,19.10
2018-08-16T01:26:29.558Z,18.87
2018-08-16T01:28:57.762Z,18.87
2018-08-16T01:31:26.561Z,17.60
2018-08-16T01:33:55.278Z,18.73
2018-08-16T01:36:23.237Z,18.43
2018-08-16T01:38:51.482Z,17.53
2018-08-16T01:41:19.713Z,17.23
2018-08-16T01:43:47.701Z,18.10
2018-08-16T01:46:15.666Z,18.13
2018-08-16T01:48:43.660Z,18.30
2018-08-16T01:51:11.638Z,17.53
2018-08-16T01:53:39.604Z,17.57
2018-08-16T01:56:07.873Z,18.40
2018-08-16T01:58:36.161Z,19.50
2018-08-16T02:01:04.389Z,20.23
2018-08-16T02:03:32.650Z,19.33
2018-08-16T02:06:00.885Z,20.30
2018-08-16T02:08:29.125Z,19.00
2018-08-16T02:10:57.390Z,19.27
2018-08-16T02:13:25.342Z,19.07
2018-08-16T02:15:53.590Z,19.60
2018-08-16T02:18:21.849Z,19.20
2018-08-16T02:20:50.081Z,18.63
2018-08-16T02:23:18.373Z,18.33
2018-08-16T02:25:46.625Z,17.23
2018-08-16T02:28:14.874Z,19.43
2018-08-16T02:30:43.095Z,18.77
2018-08-16T02:33:11.326Z,18.67
2018-08-16T02:35:39.558Z,19.87
2018-08-16T02:38:07.774Z,19.50
2018-08-16T02:40:36.033Z,19.90
2018-08-16T02:43:04.304Z,19.40
2018-08-16T02:45:32.526Z,19.87
2018-08-16T02:48:00.731Z,20.82
2018-08-16T02:50:28.961Z,21.07
2018-08-16T02:52:57.182Z,21.93
2018-08-16T02:55:25.410Z,21.87
2018-08-16T02:57:53.634Z,22.13
2018-08-16T03:00:21.866Z,21.30
2018-08-16T03:02:50.106Z,22.57
2018-08-16T03:05:18.362Z,22.30
2018-08-16T03:07:46.610Z,22.83
2018-08-16T03:10:14.834Z,23.47
2018-08-16T03:12:43.065Z,22.90
2018-08-16T03:15:11.418Z,23.30
2018-08-16T03:17:39.990Z,23.93
2018-08-16T03:20:08.390Z,23.10
2018-08-16T03:22:36.914Z,23.03
2018-08-16T03:25:05.206Z,23.20
2018-08-16T03:27:33.410Z,23.67
2018-08-16T03:30:01.645Z,24.50
2018-08-16T03:32:29.858Z,24.73
2018-08-16T03:34:57.858Z,24.53
2018-08-16T03:37:25.829Z,25.13
2018-08-16T03:39:53.793Z,24.23
2018-08-16T03:42:21.818Z,24.73
2018-08-16T03:44:49.794Z,24.27
2018-08-16T03:47:17.793Z,22.70
2018-08-16T03:49:45.755Z,21.93
2018-08-16T03:52:13.727Z,23.00
2018-08-16T03:54:41.694Z,22.27
2018-08-16T03:57:09.663Z,22.60
2018-08-16T03:59:37.710Z,22.40
2018-08-16T04:02:05.690Z,22.37
2018-08-16T04:04:33.651Z,22.27
2018-08-16T04:07:01.643Z,21.93
2018-08-16T04:09:29.659Z,21.93
2018-08-16T04:11:57.626Z,21.77
2018-08-16T04:14:25.613Z,21.27
2018-08-16T04:16:53.571Z,22.13
2018-08-16T04:19:21.511Z,22.37
2018-08-16T04:21:49.472Z,22.57
2018-08-16T04:24:17.464Z,23.03
2018-08-16T04:26:45.512Z,22.53
2018-08-16T04:29:13.664Z,22.30
2018-08-16T04:31:41.639Z,22.43
2018-08-16T04:34:09.695Z,22.60
2018-08-16T04:36:37.744Z,21.90
2018-08-16T04:39:06.436Z,23.30
2018-08-16T04:41:34.432Z,22.70
2018-08-16T04:44:02.404Z,20.67
2018-08-16T04:46:30.548Z,21.80
2018-08-16T04:48:59.873Z,21.17
2018-08-16T04:51:28.133Z,21.10
2018-08-16T04:53:57.114Z,20.67
2018-08-16T04:56:25.308Z,21.10
2018-08-16T04:58:53.507Z,21.23
2018-08-16T05:01:21.724Z,21.33
2018-08-16T05:03:49.949Z,21.37
2018-08-16T05:06:18.160Z,21.07
2018-08-16T05:08:46.405Z,20.83
2018-08-16T05:11:14.414Z,21.47
2018-08-16T05:13:42.405Z,20.17
2018-08-16T05:16:10.385Z,20.47
2018-08-16T05:18:44.784Z,20.17
2018-08-16T05:21:12.790Z,21.07
2018-08-16T05:23:41.029Z,19.30
2018-08-16T05:26:09.241Z,21.00
2018-08-16T05:28:37.205Z,19.03
2018-08-16T05:31:05.197Z,20.57
2018-08-16T05:33:33.245Z,19.40
2018-08-16T05:36:01.245Z,20.37
2018-08-16T05:38:29.200Z,19.60
2018-08-16T05:40:57.281Z,19.77
2018-08-16T05:43:25.282Z,20.20
2018-08-16T05:45:53.301Z,19.37
2018-08-16T05:48:21.345Z,18.93
2018-08-16T05:50:49.392Z,19.50
2018-08-16T05:53:17.309Z,18.63
2018-08-16T05:55:45.274Z,18.77
2018-08-16T05:58:13.404Z,18.60
2018-08-16T06:00:41.426Z,17.97
2018-08-16T06:03:09.389Z,17.97
2018-08-16T06:05:37.382Z,17.60
2018-08-16T06:08:05.550Z,18.03
2018-08-16T06:10:33.522Z,17.47
2018-08-16T06:13:01.505Z,17.37
2018-08-16T06:15:29.505Z,17.57
2018-08-16T06:17:57.834Z,17.00
2018-08-16T06:20:25.947Z,18.37
2018-08-16T06:22:54.010Z,18.53
2018-08-16T06:25:21.975Z,17.33
2018-08-16T06:27:49.950Z,16.87
2018-08-16T06:30:18.337Z,16.03
2018-08-16T06:32:46.534Z,16.10
2018-08-16T06:35:14.762Z,16.67
2018-08-16T06:37:42.746Z,16.43
2018-08-16T06:40:11.767Z,15.20
2018-08-16T06:42:39.766Z,16.73
2018-08-16T06:45:08.619Z,15.93
2018-08-16T06:47:36.595Z,15.97
2018-08-16T06:50:04.630Z,16.40
2018-08-16T06:52:32.853Z,15.20
2018-08-16T06:55:02.275Z,15.37
2018-08-16T06:57:30.235Z,15.83
2018-08-16T06:59:58.234Z,15.20
2018-08-16T07:02:26.239Z,15.50
2018-08-16T07:04:54.750Z,15.27
2018-08-16T07:07:22.915Z,14.47
2018-08-16T07:09:51.151Z,14.47
2018-08-16T07:12:19.507Z,15.13
2018-08-16T07:14:47.573Z,14.33
2018-08-16T07:17:15.575Z,14.57
2018-08-16T07:19:43.532Z,14.20
2018-08-16T07:22:11.947Z,14.83
2018-08-16T07:24:39.949Z,15.60
2018-08-16T07:27:07.896Z,14.87
2018-08-16T07:29:35.899Z,13.60
2018-08-16T07:32:03.928Z,13.27
2018-08-16T07:34:32.095Z,13.63
2018-08-16T07:37:00.603Z,13.90
2018-08-16T07:39:28.671Z,12.60
2018-08-16T07:41:57.375Z,12.73
2018-08-16T07:44:25.372Z,12.90
2018-08-16T07:46:53.336Z,11.87
2018-08-16T07:49:21.318Z,12.70
2018-08-16T07:51:49.295Z,12.50
2018-08-16T07:54:17.259Z,11.77
2018-08-16T07:56:45.220Z,11.97
2018-08-16T07:59:13.252Z,11.27
2018-08-16T08:01:41.193Z,11.30
2018-08-16T08:04:10.779Z,11.70
2018-08-16T08:06:38.840Z,12.07
2018-08-16T08:09:07.821Z,12.20
2018-08-16T08:11:35.752Z,11.20
2018-08-16T08:14:03.909Z,11.17
2018-08-16T08:16:31.885Z,12.27
2018-08-16T08:18:59.929Z,11.57
2018-08-16T08:21:27.932Z,11.80
2018-08-16T08:23:55.976Z,11.60
2018-08-16T08:26:23.976Z,11.10
2018-08-16T08:28:52.228Z,10.67
2018-08-16T08:31:20.461Z,10.83
2018-08-16T08:33:48.716Z,11.10
2018-08-16T08:36:22.333Z,10.97
2018-08-16T08:38:50.357Z,10.13
2018-08-16T08:41:18.377Z,11.20
2018-08-16T08:43:51.909Z,11.00
2018-08-16T08:46:19.869Z,10.50
2018-08-16T08:48:48.098Z,10.60
2018-08-16T08:51:16.337Z,10.03
2018-08-16T08:54:56.161Z,10.07
2018-08-16T08:57:36.608Z,10.23
2018-08-16T09:00:06.193Z,11.00
2018-08-16T09:02:34.572Z,11.63
2018-08-16T09:05:02.885Z,11.50
2018-08-16T09:07:31.250Z,11.60
2018-08-16T09:11:13.494Z,12.10
2018-08-16T09:13:54.549Z,10.33
2018-08-16T09:16:25.589Z,10.97
2018-08-16T09:18:54.006Z,11.23
2018-08-16T09:21:22.218Z,11.50
2018-08-16T09:23:50.576Z,10.67
2018-08-16T09:26:24.477Z,12.10
2018-08-16T09:28:52.781Z,11.17
2018-08-16T09:31:32.396Z,11.33
2018-08-16T09:34:22.266Z,11.87
2018-08-16T09:36:50.676Z,11.13
2018-08-16T09:39:19.511Z,12.13
2018-08-16T09:41:47.727Z,12.83
2018-08-16T09:44:15.939Z,12.37
2018-08-16T09:47:01.599Z,13.37
2018-08-16T09:49:32.330Z,12.60
2018-08-16T09:52:00.746Z,13.43
2018-08-16T09:54:28.978Z,13.50
2018-08-16T09:56:58.598Z,13.53
2018-08-16T09:59:26.883Z,13.40
2018-08-16T10:01:55.128Z,12.83
2018-08-16T10:04:23.387Z,12.30
2018-08-16T10:06:51.654Z,14.00
2018-08-16T10:09:22.119Z,12.43
2018-08-16T10:11:50.484Z,12.90
2018-08-16T10:14:18.843Z,12.53
2018-08-16T10:16:46.826Z,13.73
2018-08-16T10:19:14.808Z,12.80
2018-08-16T10:21:42.807Z,12.60
2018-08-16T10:24:11.088Z,13.60
2018-08-16T10:26:39.367Z,12.97
2018-08-16T10:29:08.035Z,12.45
2018-08-16T10:31:36.268Z,12.30
2018-08-16T10:34:04.707Z,13.37
2018-08-16T10:36:32.971Z,12.47
2018-08-16T10:39:01.253Z,13.13
2018-08-16T10:41:29.933Z,13.17
2018-08-16T10:43:59.072Z,14.33
2018-08-16T10:46:27.417Z,12.67
2018-08-16T10:48:55.660Z,13.73
2018-08-16T10:51:23.925Z,13.87
2018-08-16T10:53:52.161Z,13.00
2018-08-16T10:56:20.377Z,14.37
2018-08-16T10:58:49.337Z,13.63
2018-08-16T11:01:17.680Z,14.07
2018-08-16T11:03:50.750Z,13.43
2018-08-16T11:06:18.993Z,14.87
2018-08-16T11:08:47.209Z,13.70
2018-08-16T11:11:15.453Z,14.17
2018-08-16T11:13:43.685Z,13.43
2018-08-16T11:16:12.168Z,12.63
2018-08-16T11:18:40.672Z,12.28
2018-08-16T11:21:08.889Z,13.18
2018-08-16T11:23:39.069Z,13.60
2018-08-16T11:26:07.409Z,12.30
2018-08-16T11:28:35.681Z,12.93
2018-08-16T11:31:04.018Z,13.03
2018-08-16T11:33:32.366Z,14.00
2018-08-16T11:36:00.583Z,13.50
2018-08-16T11:38:28.864Z,14.53
2018-08-16T11:40:57.083Z,13.85
2018-08-16T11:43:25.351Z,13.93
2018-08-16T11:45:53.739Z,13.83
2018-08-16T11:48:22.127Z,13.18
2018-08-16T11:50:50.408Z,14.13
2018-08-16T11:53:18.615Z,14.40
2018-08-16T11:55:46.831Z,14.00
2018-08-16T11:58:15.087Z,14.90
2018-08-16T12:00:43.296Z,14.18
2018-08-16T12:03:11.588Z,13.20
2018-08-16T12:05:39.803Z,12.85
2018-08-16T12:08:08.063Z,14.03
2018-08-16T12:10:36.591Z,15.30
2018-08-16T12:13:04.824Z,16.20
2018-08-16T12:15:33.131Z,16.30
2018-08-16T12:18:01.392Z,16.62
2018-08-16T12:20:29.644Z,15.40
2018-08-16T12:22:57.931Z,15.68
2018-08-16T12:25:26.187Z,15.32
2018-08-16T12:27:54.439Z,15.63
2018-08-16T12:30:22.664Z,14.53
2018-08-16T12:32:50.921Z,15.65
2018-08-16T12:35:19.233Z,14.83
2018-08-16T12:37:47.487Z,15.50
2018-08-16T12:40:15.692Z,16.50
2018-08-16T12:42:43.920Z,19.23
2018-08-16T12:45:12.184Z,13.05
2018-08-16T12:47:40.497Z,13.85
2018-08-16T12:50:08.993Z,13.88
2018-08-16T12:52:37.328Z,12.90
2018-08-16T12:55:05.591Z,13.93
2018-08-16T12:57:34.024Z,15.13
2018-08-16T13:00:02.236Z,15.50
2018-08-16T13:02:30.800Z,15.43
2018-08-16T13:04:59.948Z,15.45
2018-08-16T13:07:28.248Z,14.05
2018-08-16T13:09:56.488Z,15.38
2018-08-16T13:12:24.765Z,15.72
2018-08-16T13:14:52.999Z,14.47
2018-08-16T13:17:21.210Z,15.18
2018-08-16T13:19:49.500Z,15.13
2018-08-16T13:22:17.707Z,14.87
2018-08-16T13:24:45.929Z,16.15
2018-08-16T13:27:14.256Z,17.17
2018-08-16T13:29:42.408Z,13.48
2018-08-16T13:32:10.637Z,15.07
2018-08-16T13:34:38.874Z,13.88
2018-08-16T13:37:07.284Z,14.90
2018-08-16T13:39:36.741Z,13.88
2018-08-16T13:42:04.993Z,14.35
2018-08-16T13:44:33.221Z,13.68
2018-08-16T13:47:01.439Z,14.83
2018-08-16T13:49:29.714Z,12.88
2018-08-16T13:51:57.993Z,14.13
2018-08-16T13:54:26.217Z,14.28
2018-08-16T13:56:54.462Z,14.50
2018-08-16T13:59:22.765Z,13.78
2018-08-16T14:01:51.126Z,13.60
2018-08-16T14:04:19.348Z,13.97
2018-08-16T14:06:47.582Z,12.58
2018-08-16T14:09:16.042Z,12.53
2018-08-16T14:11:44.285Z,12.00
2018-08-16T14:14:12.485Z,13.90
2018-08-16T14:16:40.740Z,12.35
2018-08-16T14:19:09.017Z,12.28
2018-08-16T14:21:37.250Z,12.70
2018-08-16T14:24:05.798Z,12.20
2018-08-16T14:26:34.059Z,11.60
2018-08-16T14:29:02.281Z,11.12
2018-08-16T14:31:30.633Z,12.47
2018-08-16T14:33:58.861Z,11.95
2018-08-16T14:36:27.182Z,11.25
2018-08-16T14:38:55.506Z,11.15
2018-08-16T14:41:23.714Z,10.38
2018-08-16T14:43:51.939Z,11.20
2018-08-16T14:46:20.177Z,9.40
2018-08-16T14:48:48.438Z,8.83
2018-08-16T14:51:16.740Z,10.03
2018-08-16T14:53:44.998Z,10.13
2018-08-16T14:56:13.379Z,9.83
2018-08-16T14:58:41.675Z,10.25
2018-08-16T15:01:09.894Z,11.47
2018-08-16T15:03:38.198Z,9.63
2018-08-16T15:06:06.462Z,10.10
2018-08-16T15:08:34.754Z,10.10
2018-08-16T15:11:02.990Z,8.90
2018-08-16T15:13:31.267Z,8.50
2018-08-16T15:15:59.522Z,10.98
2018-08-16T15:18:27.730Z,8.40
2018-08-16T15:20:55.946Z,8.90
2018-08-16T15:23:24.143Z,8.90
2018-08-16T15:25:52.426Z,8.38
2018-08-16T15:28:21.154Z,7.53
2018-08-16T15:30:49.547Z,7.85
2018-08-16T15:33:18.844Z,8.28
2018-08-16T15:35:47.122Z,8.08
2018-08-16T15:38:15.367Z,7.72
2018-08-16T15:40:43.662Z,7.80
2018-08-16T15:43:12.346Z,8.10
2018-08-16T15:45:40.623Z,7.83
2018-08-16T15:48:14.747Z,9.33
2018-08-16T15:50:43.999Z,8.35
2018-08-16T15:53:12.211Z,8.15
2018-08-16T15:55:40.471Z,7.80
2018-08-16T15:58:10.562Z,8.50
2018-08-16T16:03:13.371Z,8.73
2018-08-16T16:05:41.706Z,7.95
2018-08-16T16:08:09.839Z,8.90
2018-08-16T16:10:38.112Z,8.63
2018-08-16T16:13:06.331Z,9.95
2018-08-16T16:15:34.547Z,9.55
2018-08-16T16:18:02.863Z,8.50
2018-08-16T16:20:31.236Z,8.95
2018-08-16T16:22:59.919Z,9.70
2018-08-16T16:25:28.380Z,8.98
2018-08-16T16:27:56.776Z,19.00
2018-08-16T16:30:25.062Z,8.40
2018-08-16T16:32:53.352Z,10.05
2018-08-16T16:35:21.628Z,10.03
2018-08-16T16:37:49.960Z,9.65
2018-08-16T16:40:18.260Z,9.70
2018-08-16T16:42:46.667Z,10.65
2018-08-16T16:45:15.456Z,10.07
2018-08-16T16:47:43.688Z,9.38
2018-08-16T16:50:12.076Z,9.20
2018-08-16T16:52:40.324Z,9.58
2018-08-16T16:55:08.620Z,9.68
2018-08-16T16:57:37.315Z,9.53
2018-08-16T17:00:07.744Z,9.28
2018-08-16T17:02:36.756Z,9.50
2018-08-16T17:05:05.189Z,10.97
2018-08-16T17:07:34.412Z,10.95
2018-08-16T17:10:03.480Z,11.30
2018-08-16T17:12:31.757Z,11.30
2018-08-16T17:15:00.616Z,10.50
2018-08-16T17:17:28.697Z,9.47
2018-08-16T17:19:56.828Z,9.43
2018-08-16T17:22:24.945Z,9.10
2018-08-16T17:24:52.953Z,9.03
2018-08-16T17:27:21.101Z,9.00
2018-08-16T17:29:49.324Z,9.20
2018-08-16T17:32:17.540Z,9.10
2018-08-16T17:34:45.640Z,9.73
2018-08-16T17:37:13.644Z,8.83
2018-08-16T17:39:41.656Z,9.10
2018-08-16T17:42:09.785Z,9.63
2018-08-16T17:44:37.780Z,9.23
2018-08-16T17:47:05.917Z,9.53
2018-08-16T17:49:33.991Z,9.47
2018-08-16T17:52:02.116Z,9.37
2018-08-16T17:54:30.101Z,9.27
2018-08-16T17:56:58.202Z,9.77
2018-08-16T17:59:26.489Z,9.77
2018-08-16T18:01:54.573Z,9.33
2018-08-16T18:04:22.638Z,9.63
2018-08-16T18:06:50.777Z,10.23
2018-08-16T18:09:18.806Z,10.40
2018-08-16T18:11:46.782Z,10.63
2018-08-16T18:14:14.822Z,10.50
2018-08-16T18:16:42.957Z,10.37
2018-08-16T18:19:10.930Z,10.53
2018-08-16T18:21:39.107Z,10.80
2018-08-16T18:24:07.239Z,9.83
2018-08-16T18:26:35.162Z,10.20
2018-08-16T18:29:03.286Z,9.87
2018-08-16T18:31:31.344Z,10.87
2018-08-16T18:33:59.326Z,11.07
2018-08-16T18:36:27.622Z,10.47
2018-08-16T18:38:55.610Z,10.60
2018-08-16T18:41:23.810Z,10.50
2018-08-16T18:43:52.523Z,10.90
2018-08-16T18:46:20.839Z,10.90
2018-08-16T18:48:49.042Z,10.67
2018-08-16T18:51:17.312Z,11.23
2018-08-16T18:53:52.421Z,10.73
2018-08-16T18:56:20.691Z,10.47
2018-08-16T18:58:48.943Z,11.77
2018-08-16T19:01:17.247Z,10.20
2018-08-16T19:03:45.606Z,10.20
2018-08-16T19:06:13.856Z,10.47
2018-08-16T19:08:42.859Z,11.10
2018-08-16T19:11:11.328Z,10.23
2018-08-16T19:13:39.536Z,10.40
2018-08-16T19:16:09.394Z,10.95
2018-08-16T19:18:37.788Z,10.63
2018-08-16T19:21:06.427Z,10.93
2018-08-16T19:23:34.796Z,11.40
2018-08-16T19:26:03.135Z,10.67
2018-08-16T19:28:31.879Z,10.77
2018-08-16T19:31:01.088Z,10.73
2018-08-16T19:33:29.620Z,10.33
2018-08-16T19:35:57.915Z,10.87
2018-08-16T19:38:27.260Z,10.27
2018-08-16T19:40:55.523Z,10.63
2018-08-16T19:43:23.820Z,10.23
2018-08-16T19:45:52.040Z,10.47
2018-08-16T19:48:20.401Z,10.63
2018-08-16T19:50:49.030Z,11.17
2018-08-16T19:53:17.739Z,11.37
2018-08-16T19:55:45.939Z,11.20
2018-08-16T19:58:14.240Z,11.67
2018-08-16T20:00:42.480Z,11.60
2018-08-16T20:03:10.787Z,10.60
2018-08-16T20:05:39.460Z,11.10
2018-08-16T20:08:07.711Z,10.07
2018-08-16T20:10:36.615Z,10.83
2018-08-16T20:13:05.295Z,10.27
2018-08-16T20:15:33.527Z,10.37
2018-08-16T20:18:02.614Z,10.53
2018-08-16T20:20:30.848Z,10.40
2018-08-16T20:22:59.096Z,10.00
2018-08-16T20:25:27.372Z,10.90
2018-08-16T20:27:55.576Z,9.97
2018-08-16T20:30:23.922Z,10.60
2018-08-16T20:32:52.072Z,11.80
2018-08-16T20:35:20.300Z,10.77
2018-08-16T20:37:48.537Z,11.13
2018-08-16T20:40:16.764Z,11.50
2018-08-16T20:42:44.968Z,11.63
2018-08-16T20:45:13.396Z,12.05
2018-08-16T20:47:41.625Z,11.47
2018-08-16T20:50:09.862Z,12.07
2018-08-16T20:52:38.142Z,11.10
2018-08-16T20:55:06.544Z,11.50
2018-08-16T20:57:34.777Z,11.50
2018-08-16T21:00:03.028Z,11.50
2018-08-16T21:02:31.256Z,11.27
2018-08-16T21:04:59.489Z,11.43
2018-08-16T21:07:27.734Z,11.40
2018-08-16T21:09:55.982Z,11.50
2018-08-16T21:12:24.237Z,11.63
2018-08-16T21:14:52.228Z,11.83
2018-08-16T21:17:20.192Z,10.93
2018-08-16T21:19:48.153Z,11.77
2018-08-16T21:22:16.141Z,11.50
2018-08-16T21:24:44.120Z,11.53
2018-08-16T21:27:12.149Z,11.47
2018-08-16T21:29:40.153Z,11.73
2018-08-16T21:32:08.694Z,12.20
2018-08-16T21:34:36.692Z,11.47
2018-08-16T21:37:04.721Z,10.83
2018-08-16T21:39:32.706Z,11.03
2018-08-16T21:42:00.717Z,11.40
2018-08-16T21:44:28.685Z,11.23
2018-08-16T21:46:59.205Z,11.53
2018-08-16T21:49:27.277Z,12.10
2018-08-16T21:51:55.250Z,12.00
2018-08-16T21:54:23.238Z,11.37
2018-08-16T21:56:51.246Z,11.33
2018-08-16T21:59:19.214Z,11.13
2018-08-16T22:01:47.155Z,11.90
2018-08-16T22:04:15.276Z,12.03
2018-08-16T22:06:48.851Z,12.03
2018-08-16T22:09:16.869Z,11.73
2018-08-16T22:11:44.816Z,11.70
2018-08-16T22:14:12.808Z,11.80
2018-08-16T22:16:40.789Z,12.17
2018-08-16T22:19:08.768Z,11.93
2018-08-16T22:21:36.744Z,11.67
2018-08-16T22:24:04.719Z,11.70
2018-08-16T22:26:32.832Z,12.33
2018-08-16T22:29:00.808Z,11.60
2018-08-16T22:31:28.845Z,12.33
2018-08-16T22:33:56.849Z,11.80
2018-08-16T22:36:24.823Z,12.67
2018-08-16T22:38:52.872Z,12.80
2018-08-16T22:41:20.827Z,12.67
2018-08-16T22:43:48.804Z,13.10
2018-08-16T22:46:16.792Z,11.60
2018-08-16T22:48:44.756Z,11.70
2018-08-16T22:51:12.768Z,12.57
2018-08-16T22:53:40.743Z,11.73
2018-08-16T22:56:08.704Z,12.80
2018-08-16T22:58:38.206Z,14.53
2018-08-16T23:01:06.167Z,14.67
2018-08-16T23:03:34.129Z,14.17
2018-08-16T23:06:02.828Z,14.47
2018-08-16T23:08:30.964Z,15.53
2018-08-16T23:10:58.985Z,14.23
2018-08-16T23:13:27.225Z,15.83
2018-08-16T23:15:55.438Z,14.63
2018-08-16T23:18:23.749Z,15.70
2018-08-16T23:20:52.025Z,14.43
2018-08-16T23:23:20.305Z,15.00
2018-08-16T23:25:48.601Z,15.13
2018-08-16T23:28:16.986Z,16.23
2018-08-16T23:30:45.233Z,15.87
2018-08-16T23:33:13.478Z,15.90
2018-08-16T23:35:41.705Z,15.23
2018-08-16T23:38:09.913Z,14.23
2018-08-16T23:40:38.159Z,15.60
2018-08-16T23:43:07.285Z,15.70
2018-08-16T23:45:35.474Z,15.60
2018-08-16T23:48:15.051Z,15.63
2018-08-16T23:50:43.265Z,16.00
2018-08-16T23:53:11.535Z,16.03
2018-08-16T23:55:39.522Z,15.93
2018-08-16T23:58:07.486Z,16.20
